Youngstown, OH

05:03 AM EDT die 27o April, anno 2017 (GMT -0400)
Downtown Youngstown | | Change Station

Elev 873 ft 41.10 °N, 80.65 °W | Updated 1 second ago

Serena
Serena
61.1 °F
Feels Like 61.1 °F
N
0.0
Ventus Variabilis Ventus from Inter Austrum et Eurum
Gusts 3.0 mph

Hodie
High -- | Low -- °F
--% Chance of Precip.
Yesterday
High -- | Low -- °F
Precip. -- in
Pressio 29.64 in
Visibilitas 10.0 milia passuum
Clouds Few 25000 ft
Frigus in quo Ros apparet 56 °F
Umor 82%
Rainfall 0.00 in
Snow Depth Not available.
6:25 AM 8:15 PM
New, 1% visible
METAR KYNG 270851Z 13009KT 10SM FEW250 17/12 A2966 RMK AO2 SLP036 T01720122 56004
Pressio 29.64 in
Visibilitas 10.0 milia passuum
Clouds Few 25000 ft
Frigus in quo Ros apparet 56 °F
Umor 82%
Rainfall 0.00 in
Snow Depth Not available.
6:25 AM 8:15 PM
New, 1% visible
METAR KYNG 270851Z 13009KT 10SM FEW250 17/12 A2966 RMK AO2 SLP036 T01720122 56004

Get Severe Weather Alerts

Thanks for signing up!

Be on the lookout for a verification email in your inbox.

You'll start receiving the daily forecast at 8 AM.

×

10-Day Weather Forecast

Almanac

Astronomy

Apr. 27, 2017 Rise Set
Actual Time
Civil Twilight
Nautical Twilight
Astronomical Twilight
Moon
Length Of Visible Light
Length of Day
Tomorrow will be .
, % of the Moon is Illuminated

Today's Extremes

State Highs State Lows

Community

WunderPhotos

WunderBlog® & News

Nearby

Air Quality

  Air Quality AQ Index Pollutant
Not available.

Snow Depth

Station Depth Elevation

Earthquake Activity

City Distance Mag. Time & Date
Minimum magnitude displayed is 2.5.

Coastal Water Temperatures

Locus Calor

Stations

Nearby Weather Stations

Station Location Temp Frigus Venti Frigus in quo Ros apparet Umor Ventus Precip. Elev Renovata Type
                   

Watches & Warnings

There are currently no watches in effect.